Time;durP1;ratioP1;P1;durP2;ratioP2;P2;SDS_P1;SDS_P2;PMS_P1;PMS_P2;Temp;Humidity;BMP_temperature;BMP_pressure;BME280_temperature;BME280_humidity;BME280_pressure;Samples;Min_cycle;Max_cycle;Signal;HPM_P1;HPM_P2
2022/06/02 00:00:06;;;;;;;1.20;1.10;;;20.70;98.80;;;;;;4241505;27;20262;-77
2022/06/02 00:02:19;;;;;;;1.80;1.30;;;20.70;99.10;;;;;;4242909;27;20217;-77
2022/06/02 00:04:30;;;;;;;1.13;1.00;;;20.70;99.20;;;;;;4242653;27;20217;-77
2022/06/02 00:06:44;;;;;;;1.10;1.00;;;20.70;99.30;;;;;;4236311;27;20233;-77
2022/06/02 00:08:58;;;;;;;1.20;1.10;;;20.60;99.00;;;;;;4218442;28;20691;-77
2022/06/02 00:11:12;;;;;;;1.38;1.25;;;20.60;98.80;;;;;;4218360;28;20217;-77
2022/06/02 00:13:21;;;;;;;1.58;1.10;;;20.70;99.00;;;;;;4217977;28;20342;-77
2022/06/02 00:15:27;;;;;;;0.93;0.88;;;20.60;99.20;;;;;;4225146;27;20216;-77
2022/06/02 00:17:45;;;;;;;1.60;1.20;;;20.70;98.60;;;;;;4224488;28;20217;-77
2022/06/02 00:19:55;;;;;;;2.47;1.23;;;20.60;99.00;;;;;;4216160;28;20210;-77
2022/06/02 00:22:05;;;;;;;0.88;0.85;;;20.70;98.80;;;;;;4214578;27;20295;-78
2022/06/02 00:24:18;;;;;;;1.23;1.13;;;20.60;99.00;;;;;;4226266;28;20221;-77
2022/06/02 00:26:44;;;;;;;1.45;1.00;;;20.60;99.50;;;;;;4222629;28;20746;-77
2022/06/02 00:28:54;;;;;;;1.30;1.20;;;20.60;99.10;;;;;;4224816;28;20681;-77
2022/06/02 00:31:03;;;;;;;1.58;1.15;;;20.70;98.40;;;;;;4225311;27;20213;-77
2022/06/02 00:33:20;;;;;;;1.08;0.98;;;20.60;99.20;;;;;;4222024;28;20212;-77
2022/06/02 00:35:30;;;;;;;1.02;0.93;;;20.60;99.20;;;;;;4225265;28;20217;-77
2022/06/02 00:37:46;;;;;;;1.10;1.00;;;20.60;99.30;;;;;;4228211;27;20258;-77
2022/06/02 00:39:50;;;;;;;2.72;1.23;;;20.60;98.60;;;;;;4227558;27;20221;-77
2022/06/02 00:42:06;;;;;;;1.23;1.13;;;20.70;99.30;;;;;;4222339;27;20238;-77
2022/06/02 00:44:22;;;;;;;2.80;1.30;;;20.60;98.90;;;;;;4224474;27;20275;-77
2022/06/02 00:46:31;;;;;;;1.20;0.95;;;20.60;99.20;;;;;;4225284;28;20218;-77
2022/06/02 00:48:46;;;;;;;2.00;1.48;;;20.60;99.40;;;;;;4225363;28;20282;-77
2022/06/02 00:50:58;;;;;;;1.10;1.00;;;20.60;99.30;;;;;;4223622;28;20669;-77
2022/06/02 00:53:10;;;;;;;1.50;1.10;;;20.60;99.60;;;;;;4224990;28;20267;-77
2022/06/02 00:57:46;;;;;;;2.05;1.45;;;20.60;99.20;;;;;;4224910;28;20587;-77
2022/06/02 01:00:00;;;;;;;3.30;1.13;;;20.60;99.30;;;;;;4226190;28;20727;-77
2022/06/02 01:02:03;;;;;;;1.70;1.08;;;20.60;99.30;;;;;;4222066;27;20225;-77
2022/06/02 01:04:09;;;;;;;1.63;1.00;;;20.60;98.90;;;;;;4225225;28;20229;-77
2022/06/02 01:06:29;;;;;;;1.50;1.27;;;20.50;99.00;;;;;;4225132;28;20237;-77
2022/06/02 01:08:50;;;;;;;1.38;1.13;;;20.50;99.30;;;;;;4224760;28;20218;-77
2022/06/02 01:11:05;;;;;;;1.45;1.00;;;20.50;99.30;;;;;;4223885;28;20671;-77
2022/06/02 01:13:32;;;;;;;2.08;1.17;;;20.60;99.40;;;;;;4225673;28;20213;-77
2022/06/02 01:15:48;;;;;;;2.97;1.10;;;20.60;99.40;;;;;;4224798;28;20673;-77
2022/06/02 01:18:06;;;;;;;1.45;0.95;;;20.50;99.40;;;;;;4224002;28;20252;-77
2022/06/02 01:20:23;;;;;;;1.85;1.20;;;20.50;99.00;;;;;;4224753;28;20720;-77
2022/06/02 01:22:50;;;;;;;1.20;1.13;;;20.50;99.40;;;;;;4225078;28;20210;-77
2022/06/02 01:25:14;;;;;;;1.38;1.20;;;20.50;99.30;;;;;;4224935;28;20213;-77
2022/06/02 01:27:51;;;;;;;1.83;1.23;;;20.50;99.50;;;;;;4225279;28;20217;-77
2022/06/02 01:30:17;;;;;;;1.52;1.13;;;20.50;99.60;;;;;;4214619;28;20234;-77
2022/06/02 01:32:29;;;;;;;1.92;1.50;;;20.50;99.30;;;;;;4225008;28;20209;-77
2022/06/02 01:34:52;;;;;;;2.35;1.30;;;20.50;99.30;;;;;;4224657;28;20290;-77
2022/06/02 01:37:03;;;;;;;1.30;1.15;;;20.50;99.40;;;;;;4227585;28;20194;-77
2022/06/02 01:39:23;;;;;;;2.70;1.20;;;20.50;99.80;;;;;;4228637;28;20229;-77
2022/06/02 01:41:34;;;;;;;1.92;1.23;;;20.50;99.50;;;;;;4226458;28;20213;-77
2022/06/02 01:43:43;;;;;;;1.35;1.17;;;20.40;99.50;;;;;;4228804;28;20402;-77
2022/06/02 01:46:11;;;;;;;2.15;1.40;;;20.40;99.50;;;;;;4228163;28;20209;-77
2022/06/02 01:48:30;;;;;;;1.58;1.20;;;20.50;99.50;;;;;;4228779;28;20266;-77
2022/06/02 01:50:44;;;;;;;1.42;1.27;;;20.40;99.50;;;;;;4227915;28;20237;-77
2022/06/02 01:52:57;;;;;;;1.20;1.10;;;20.40;99.60;;;;;;4227276;28;20646;-77
2022/06/02 01:55:10;;;;;;;1.67;1.02;;;20.40;99.20;;;;;;4228519;28;20213;-77
2022/06/02 01:57:30;;;;;;;1.83;1.00;;;20.40;99.20;;;;;;4227971;28;20217;-77
2022/06/02 01:59:49;;;;;;;1.58;1.20;;;20.40;99.70;;;;;;4227764;28;20263;-77
2022/06/02 02:02:02;;;;;;;1.20;1.08;;;20.40;99.50;;;;;;4227949;28;20271;-77
2022/06/02 02:04:21;;;;;;;2.13;1.20;;;20.40;99.40;;;;;;4226623;28;20654;-77
2022/06/02 02:06:34;;;;;;;1.35;1.20;;;20.40;99.70;;;;;;4223200;28;20242;-77
2022/06/02 02:08:55;;;;;;;1.50;1.20;;;20.40;99.40;;;;;;4212822;28;20377;-77
2022/06/02 02:11:11;;;;;;;1.67;1.10;;;20.40;99.70;;;;;;4211366;28;20255;-77
2022/06/02 02:13:25;;;;;;;1.13;1.02;;;20.40;99.20;;;;;;4213875;28;20252;-76
2022/06/02 02:15:40;;;;;;;1.40;1.20;;;20.40;99.50;;;;;;4212276;28;20218;-77
2022/06/02 02:17:53;;;;;;;1.55;1.00;;;20.40;99.90;;;;;;4211316;28;20206;-77
2022/06/02 02:20:08;;;;;;;1.13;1.02;;;20.40;99.60;;;;;;4213290;28;20667;-77
2022/06/02 02:22:22;;;;;;;2.00;1.35;;;20.40;99.60;;;;;;4214755;28;20222;-77
2022/06/02 02:24:40;;;;;;;1.20;1.10;;;20.40;99.60;;;;;;4211275;28;20210;-77
2022/06/02 02:26:48;;;;;;;1.15;1.05;;;20.40;99.70;;;;;;4211410;28;20210;-77
2022/06/02 02:29:01;;;;;;;1.17;1.10;;;20.40;99.90;;;;;;4213564;28;20642;-77
2022/06/02 02:31:18;;;;;;;2.15;1.50;;;20.40;99.80;;;;;;4216087;28;20217;-77
2022/06/02 02:33:37;;;;;;;3.50;1.38;;;20.40;99.50;;;;;;4213414;28;20213;-77
2022/06/02 02:35:50;;;;;;;1.10;1.00;;;20.40;99.40;;;;;;4215404;28;20262;-77
2022/06/02 02:37:58;;;;;;;1.17;1.00;;;20.40;99.50;;;;;;4211378;28;20271;-77
2022/06/02 02:40:06;;;;;;;1.20;1.10;;;20.40;99.30;;;;;;4213167;28;20206;-77
2022/06/02 02:42:17;;;;;;;1.90;1.10;;;20.40;99.50;;;;;;4210882;28;20209;-77
2022/06/02 02:44:27;;;;;;;1.40;1.30;;;20.40;99.40;;;;;;4211892;28;20265;-77
2022/06/02 02:46:37;;;;;;;1.20;1.10;;;20.40;99.30;;;;;;4212792;28;20213;-77
2022/06/02 02:48:51;;;;;;;1.50;1.40;;;20.40;99.60;;;;;;4215017;28;20330;-77
2022/06/02 02:51:03;;;;;;;1.67;1.27;;;20.40;99.50;;;;;;4214209;28;20229;-77
2022/06/02 02:53:12;;;;;;;1.13;1.02;;;20.40;99.40;;;;;;4212575;28;20226;-77
2022/06/02 02:55:19;;;;;;;1.25;1.15;;;20.30;99.30;;;;;;4214112;28;20254;-77
2022/06/02 02:57:31;;;;;;;2.70;1.00;;;20.30;99.30;;;;;;4212481;28;20255;-77
2022/06/02 02:59:42;;;;;;;2.30;1.10;;;20.30;99.50;;;;;;4210669;28;20679;-77
2022/06/02 03:01:54;;;;;;;1.33;1.10;;;20.40;99.30;;;;;;4207848;28;20667;-77
2022/06/02 03:04:10;;;;;;;1.70;1.33;;;20.30;99.40;;;;;;4214285;28;20259;-77
2022/06/02 03:06:23;;;;;;;1.60;1.30;;;20.40;99.70;;;;;;4210724;27;20242;-76
2022/06/02 03:08:36;;;;;;;1.65;1.08;;;20.30;99.40;;;;;;4226779;28;20662;-77
2022/06/02 03:10:43;;;;;;;1.83;1.00;;;20.30;99.60;;;;;;4226836;28;20323;-77
2022/06/02 03:13:24;;;;;;;1.63;1.20;;;20.40;99.50;;;;;;4225476;28;20206;-77
2022/06/02 03:15:31;;;;;;;1.50;1.10;;;20.30;99.60;;;;;;4217696;27;20678;-77
2022/06/02 03:17:47;;;;;;;3.13;1.45;;;20.30;99.90;;;;;;4230467;27;20219;-76
2022/06/02 03:19:58;;;;;;;1.77;1.20;;;20.30;99.80;;;;;;4228433;27;20628;-77
2022/06/02 03:22:11;;;;;;;1.90;1.27;;;20.30;99.50;;;;;;4220634;27;20221;-77
2022/06/02 03:24:46;;;;;;;1.90;1.42;;;20.30;99.70;;;;;;4224787;28;20221;-77
2022/06/02 03:26:57;;;;;;;1.77;1.17;;;20.30;99.90;;;;;;4225913;27;20648;-77
2022/06/02 03:29:06;;;;;;;2.50;1.25;;;20.30;99.40;;;;;;4225196;28;20221;-77
2022/06/02 03:31:13;;;;;;;1.30;1.20;;;20.30;99.90;;;;;;4225942;28;20286;-77
2022/06/02 03:33:47;;;;;;;2.40;1.35;;;20.30;99.60;;;;;;4226230;28;20226;-77
2022/06/02 03:36:04;;;;;;;1.48;1.30;;;20.30;99.60;;;;;;4230169;27;20672;-77
2022/06/02 03:38:20;;;;;;;1.60;1.38;;;20.30;99.50;;;;;;4225779;27;20213;-77
2022/06/02 03:40:34;;;;;;;1.77;1.20;;;20.30;99.60;;;;;;4226325;27;20235;-77
2022/06/02 03:42:45;;;;;;;2.95;1.50;;;20.30;99.50;;;;;;4229080;27;20298;-77
2022/06/02 03:45:03;;;;;;;2.47;1.25;;;20.30;99.50;;;;;;4229978;27;20267;-77
2022/06/02 03:47:19;;;;;;;2.03;1.30;;;20.20;99.40;;;;;;4227449;27;21647;-77
2022/06/02 03:49:50;;;;;;;3.42;1.20;;;20.30;99.80;;;;;;4229833;27;20240;-77
2022/06/02 03:52:08;;;;;;;1.58;1.40;;;20.30;99.80;;;;;;4229888;27;20210;-77
2022/06/02 03:54:40;;;;;;;1.98;1.35;;;20.30;99.50;;;;;;4229791;27;20226;-77
2022/06/02 03:57:05;;;;;;;1.45;1.30;;;20.30;99.70;;;;;;4198016;27;20221;-76
2022/06/02 03:59:35;;;;;;;1.58;1.13;;;20.30;99.60;;;;;;4228429;27;20210;-77
2022/06/02 04:01:41;;;;;;;2.05;1.20;;;20.30;99.50;;;;;;4228842;27;20213;-77
2022/06/02 04:04:09;;;;;;;1.27;1.17;;;20.30;99.50;;;;;;4233259;27;20214;-77
2022/06/02 04:06:40;;;;;;;1.13;1.02;;;20.30;99.40;;;;;;4230673;27;20270;-77
2022/06/02 04:09:13;;;;;;;1.63;1.40;;;20.30;99.40;;;;;;4225141;27;20661;-77
2022/06/02 04:14:07;;;;;;;2.70;1.33;;;20.20;99.80;;;;;;4222419;27;20226;-77
2022/06/02 04:16:33;;;;;;;1.95;1.50;;;20.30;99.80;;;;;;4224417;27;20283;-77
2022/06/02 04:18:46;;;;;;;2.03;1.40;;;20.30;99.80;;;;;;4223317;28;20210;-77
2022/06/02 04:21:04;;;;;;;1.92;1.25;;;20.20;99.20;;;;;;4225082;28;20630;-79
2022/06/02 04:23:39;;;;;;;2.30;1.33;;;20.20;99.80;;;;;;4223702;28;20266;-77
2022/06/02 04:25:49;;;;;;;7.47;3.90;;;20.20;99.40;;;;;;4224400;27;20662;-77
2022/06/02 04:28:05;;;;;;;6.97;4.78;;;20.20;98.70;;;;;;4226832;27;20277;-77
2022/06/02 04:30:17;;;;;;;8.10;5.60;;;20.10;98.60;;;;;;4223119;28;20225;-76
2022/06/02 04:32:28;;;;;;;7.63;5.60;;;20.10;98.70;;;;;;4217619;28;20230;-76
2022/06/02 04:34:36;;;;;;;8.57;6.10;;;20.00;98.70;;;;;;4223353;27;20263;-77
2022/06/02 04:36:45;;;;;;;9.35;6.43;;;19.90;98.80;;;;;;4224735;28;20214;-77
2022/06/02 04:38:57;;;;;;;7.55;6.00;;;19.90;98.90;;;;;;4224306;28;20590;-77
2022/06/02 04:41:09;;;;;;;9.23;6.63;;;19.80;98.90;;;;;;4223882;28;20201;-77
2022/06/02 04:43:21;;;;;;;9.80;6.95;;;19.80;98.90;;;;;;4221801;28;20743;-77
2022/06/02 04:45:32;;;;;;;8.65;6.40;;;19.80;99.00;;;;;;4222968;27;20217;-76
2022/06/02 04:47:51;;;;;;;7.97;6.63;;;19.80;99.10;;;;;;4222755;28;20314;-77
2022/06/02 04:50:00;;;;;;;7.18;4.63;;;19.70;99.10;;;;;;4222482;28;20259;-77
2022/06/02 04:52:12;;;;;;;9.00;4.97;;;19.70;99.20;;;;;;4222940;28;20634;-77
2022/06/02 04:54:26;;;;;;;5.47;3.67;;;19.70;99.40;;;;;;4223005;28;20636;-77
2022/06/02 04:56:35;;;;;;;5.30;3.72;;;19.70;99.50;;;;;;4222866;28;20617;-77
2022/06/02 04:58:46;;;;;;;4.85;3.13;;;19.70;99.60;;;;;;4221355;28;20878;-77
2022/06/02 05:00:56;;;;;;;5.05;3.28;;;19.80;99.70;;;;;;4222760;28;20217;-77
2022/06/02 05:03:05;;;;;;;6.78;3.08;;;19.90;99.80;;;;;;4221529;28;20217;-77
2022/06/02 05:05:15;;;;;;;4.15;2.85;;;19.90;99.70;;;;;;4222645;28;20209;-77
2022/06/02 05:07:26;;;;;;;3.53;2.72;;;19.90;99.60;;;;;;4211009;28;20238;-77
2022/06/02 05:09:36;;;;;;;4.57;2.72;;;20.00;99.60;;;;;;4207246;28;20242;-77
2022/06/02 05:11:48;;;;;;;4.70;2.28;;;20.00;99.50;;;;;;4208070;28;20284;-77
2022/06/02 05:14:04;;;;;;;3.63;2.22;;;20.00;99.40;;;;;;4208560;28;20218;-77
2022/06/02 05:16:19;;;;;;;5.15;2.60;;;20.00;99.60;;;;;;4212913;28;20543;-77
2022/06/02 05:18:42;;;;;;;3.78;2.30;;;20.10;99.70;;;;;;4207325;28;20942;-77
2022/06/02 05:21:09;;;;;;;2.85;2.10;;;20.10;99.80;;;;;;4209842;28;20236;-77
2022/06/02 05:23:39;;;;;;;7.20;2.17;;;20.10;99.60;;;;;;4205456;28;20218;-77
2022/06/02 05:26:02;;;;;;;4.28;2.08;;;20.20;99.60;;;;;;4207876;28;20303;-77
2022/06/02 05:28:34;;;;;;;4.10;1.83;;;20.20;99.70;;;;;;4207881;28;20566;-77
2022/06/02 05:30:53;;;;;;;4.63;1.90;;;20.20;99.60;;;;;;4207934;28;20631;-77
2022/06/02 05:33:20;;;;;;;4.43;2.22;;;20.20;99.90;;;;;;4210900;28;20203;-77
2022/06/02 05:35:50;;;;;;;6.07;2.17;;;20.20;99.70;;;;;;4197274;28;20599;-77
2022/06/02 05:38:10;;;;;;;3.95;1.75;;;20.20;99.70;;;;;;4211804;28;20275;-77
2022/06/02 05:40:31;;;;;;;4.38;2.08;;;20.30;99.80;;;;;;4208918;28;20769;-77
2022/06/02 05:42:45;;;;;;;3.45;2.10;;;20.20;99.90;;;;;;4206130;28;20655;-77
2022/06/02 05:45:00;;;;;;;3.47;1.95;;;20.20;99.90;;;;;;4208229;28;20564;-77
2022/06/02 05:47:17;;;;;;;2.20;1.75;;;20.30;99.90;;;;;;4208057;28;20280;-77
2022/06/02 05:49:29;;;;;;;3.13;1.70;;;20.30;99.90;;;;;;4207250;28;20214;-76
2022/06/02 05:51:41;;;;;;;3.97;1.60;;;20.30;99.90;;;;;;4208490;28;20241;-77
2022/06/02 05:53:53;;;;;;;2.13;1.45;;;20.30;99.80;;;;;;4208055;28;20611;-77
2022/06/02 05:56:04;;;;;;;5.47;1.80;;;20.30;99.80;;;;;;4204858;28;20264;-77
2022/06/02 05:58:21;;;;;;;1.77;1.67;;;20.30;99.90;;;;;;4208537;28;20221;-77
2022/06/02 06:00:32;;;;;;;3.42;1.88;;;20.30;99.90;;;;;;4208915;28;20215;-77
2022/06/02 06:03:16;;;;;;;2.35;1.60;;;20.30;99.90;;;;;;4208988;28;20262;-77
2022/06/02 06:05:28;;;;;;;5.55;4.03;;;20.30;99.90;;;;;;4205308;28;20260;-77
2022/06/02 06:07:44;;;;;;;8.25;4.50;;;20.20;99.40;;;;;;4204432;28;20313;-77
2022/06/02 06:09:59;;;;;;;9.63;5.97;;;20.30;99.40;;;;;;4205188;28;20604;-77
2022/06/02 06:12:26;;;;;;;8.98;6.78;;;20.20;99.40;;;;;;4199144;28;20571;-77
2022/06/02 06:14:37;;;;;;;9.23;7.10;;;20.10;99.60;;;;;;4204749;28;20299;-76
2022/06/02 06:16:44;;;;;;;10.18;7.40;;;20.10;99.70;;;;;;4205221;28;20675;-77
2022/06/02 06:18:58;;;;;;;10.10;7.18;;;20.10;99.70;;;;;;4205796;28;20206;-77
2022/06/02 06:21:16;;;;;;;9.80;7.75;;;20.00;99.60;;;;;;4205703;28;20223;-77
2022/06/02 06:24:04;;;;;;;9.57;7.57;;;20.10;99.70;;;;;;4208853;28;20218;-77
2022/06/02 06:26:25;;;;;;;10.27;7.20;;;20.00;99.60;;;;;;4161263;28;20264;-77
2022/06/02 06:28:32;;;;;;;10.57;7.18;;;20.10;99.50;;;;;;4208274;28;20268;-76
2022/06/02 06:30:45;;;;;;;8.10;7.03;;;20.00;99.40;;;;;;4207549;28;20222;-77
2022/06/02 06:32:59;;;;;;;9.70;7.47;;;20.00;99.50;;;;;;4208491;28;20276;-76
2022/06/02 06:35:13;;;;;;;8.27;7.47;;;20.10;99.40;;;;;;4209978;28;20626;-76
2022/06/02 06:37:39;;;;;;;8.57;6.82;;;20.10;99.40;;;;;;4208674;28;20273;-76
2022/06/02 06:39:51;;;;;;;13.20;7.38;;;20.00;99.40;;;;;;4207431;28;20263;-76
2022/06/02 06:42:13;;;;;;;7.72;6.93;;;20.00;99.30;;;;;;4206201;28;20214;-76
2022/06/02 06:44:22;;;;;;;8.65;7.03;;;19.90;99.30;;;;;;4208540;28;20275;-77
2022/06/02 06:46:31;;;;;;;5.82;5.22;;;20.00;99.40;;;;;;4207289;28;20214;-77
2022/06/02 06:48:38;;;;;;;7.45;5.22;;;19.90;99.50;;;;;;4207408;28;20218;-77
2022/06/02 06:50:50;;;;;;;6.95;4.88;;;19.90;99.70;;;;;;4207406;28;20818;-77
2022/06/02 06:53:17;;;;;;;6.50;4.07;;;20.00;99.80;;;;;;4206317;28;21514;-76
2022/06/02 06:55:35;;;;;;;7.78;5.20;;;20.00;99.90;;;;;;4206000;28;20621;-77
2022/06/02 06:57:44;;;;;;;11.20;6.40;;;20.00;99.40;;;;;;4208212;28;20276;-78
2022/06/02 06:59:52;;;;;;;8.02;6.50;;;19.60;99.90;;;;;;4207856;28;20218;-78
2022/06/02 07:02:03;;;;;;;9.00;6.65;;;19.40;99.90;;;;;;4210063;28;20206;-78
2022/06/02 07:04:22;;;;;;;9.77;7.40;;;19.20;99.90;;;;;;4206643;28;20210;-79
2022/06/02 07:06:33;;;;;;;7.97;6.75;;;19.10;99.90;;;;;;4217118;27;20241;-79
2022/06/02 07:08:41;;;;;;;8.80;7.90;;;19.10;99.90;;;;;;4243913;27;20208;-78
2022/06/02 07:10:50;;;;;;;12.80;7.60;;;19.10;99.90;;;;;;4243777;27;20556;-79
2022/06/02 07:13:01;;;;;;;10.20;7.70;;;19.10;99.90;;;;;;4243615;27;20296;-79
2022/06/02 07:15:14;;;;;;;7.28;6.57;;;19.10;99.90;;;;;;4239482;27;20598;-79
2022/06/02 07:17:23;;;;;;;10.75;6.80;;;19.10;99.90;;;;;;4241164;27;20238;-81
2022/06/02 07:19:33;;;;;;;11.73;7.03;;;19.10;99.90;;;;;;4243569;27;20256;-84
2022/06/02 07:21:43;;;;;;;10.93;7.65;;;19.00;99.90;;;;;;4243930;27;20273;-81
2022/06/02 07:23:57;;;;;;;9.52;7.60;;;18.80;99.90;;;;;;4240779;27;20317;-85
2022/06/02 07:26:11;;;;;;;9.25;8.02;;;18.70;99.90;;;;;;4242621;27;20277;-77
2022/06/02 07:28:24;;;;;;;8.82;7.93;;;18.70;99.90;;;;;;4242158;27;20201;-80
2022/06/02 07:30:42;;;;;;;8.98;8.07;;;18.80;99.90;;;;;;4240509;27;20604;-81
2022/06/02 07:33:08;;;;;;;8.73;7.90;;;18.90;99.90;;;;;;4238085;27;20705;-81
2022/06/02 07:35:59;;;;;;;13.65;8.32;;;19.00;99.90;;;;;;4239314;27;20220;-81
2022/06/02 07:38:08;;;;;;;12.02;7.10;;;19.10;99.90;;;;;;4244323;27;20273;-79
2022/06/02 07:40:38;;;;;;;6.80;6.13;;;19.00;99.90;;;;;;4236284;27;20213;-79
2022/06/02 07:43:14;;;;;;;11.05;5.93;;;18.90;99.90;;;;;;4242470;27;20209;-82
2022/06/02 07:45:35;;;;;;;10.10;5.68;;;19.00;99.90;;;;;;4237713;27;20277;-81
2022/06/02 07:47:49;;;;;;;9.32;5.72;;;19.00;99.90;;;;;;4241726;27;20258;-81
2022/06/02 07:49:56;;;;;;;6.20;5.30;;;19.00;99.90;;;;;;4238981;27;20930;-81
2022/06/02 07:52:05;;;;;;;6.10;5.22;;;19.10;99.90;;;;;;4237729;27;20731;-82
2022/06/02 07:54:23;;;;;;;7.63;4.15;;;19.40;99.90;;;;;;4240802;27;20221;-84
2022/06/02 07:56:33;;;;;;;6.05;3.80;;;19.70;99.90;;;;;;4244009;27;20209;-83
2022/06/02 07:58:45;;;;;;;6.63;3.20;;;19.90;99.90;;;;;;4242711;27;20254;-84
2022/06/02 08:00:54;;;;;;;7.70;2.78;;;20.10;99.90;;;;;;4240398;27;20281;-77
2022/06/02 08:03:30;;;;;;;6.07;2.78;;;20.20;99.90;;;;;;4238712;27;20607;-79
2022/06/02 08:05:40;;;;;;;5.68;2.50;;;20.40;99.90;;;;;;4239631;27;20209;-76
2022/06/02 08:07:50;;;;;;;5.15;2.42;;;20.50;99.70;;;;;;4226256;27;20229;-78
2022/06/02 08:10:09;;;;;;;4.78;2.20;;;20.50;99.50;;;;;;4219373;28;20318;-76
2022/06/02 08:12:21;;;;;;;10.40;2.80;;;20.60;99.60;;;;;;4223414;27;20319;-79
2022/06/02 08:14:31;;;;;;;25.25;4.03;;;20.80;99.90;;;;;;4222126;27;20657;-80
2022/06/02 08:16:47;;;;;;;14.70;3.10;;;20.90;99.90;;;;;;4219970;27;20221;-80
2022/06/02 08:19:09;;;;;;;21.50;2.92;;;20.90;99.70;;;;;;4221227;27;20218;-80
2022/06/02 08:21:21;;;;;;;10.05;2.30;;;20.90;99.30;;;;;;4228987;27;20642;-79
2022/06/02 08:24:07;;;;;;;11.38;2.72;;;21.00;99.30;;;;;;4220924;28;20217;-77
2022/06/02 08:26:16;;;;;;;8.40;2.40;;;21.00;99.40;;;;;;4186615;28;20218;-79
2022/06/02 08:28:43;;;;;;;8.70;2.78;;;21.00;99.70;;;;;;4178231;28;20666;-80
2022/06/02 08:30:54;;;;;;;8.82;2.42;;;21.20;99.80;;;;;;4185079;28;20218;-81
2022/06/02 08:33:20;;;;;;;8.40;1.85;;;21.20;99.50;;;;;;4184558;28;20277;-80
2022/06/02 08:35:28;;;;;;;4.53;2.10;;;21.10;99.80;;;;;;4186656;28;20231;-82
2022/06/02 08:37:41;;;;;;;8.10;2.15;;;21.20;99.50;;;;;;4188009;28;20699;-80
2022/06/02 08:39:56;;;;;;;9.88;2.35;;;21.30;99.60;;;;;;4182954;28;20211;-77
2022/06/02 08:42:27;;;;;;;8.23;2.35;;;21.40;99.60;;;;;;4185671;28;20286;-80
2022/06/02 08:45:14;;;;;;;9.10;2.00;;;21.30;99.50;;;;;;4186763;28;20269;-80
2022/06/02 08:48:04;;;;;;;5.40;1.80;;;21.40;99.30;;;;;;4187494;28;20219;-78
2022/06/02 08:50:44;;;;;;;3.15;1.90;;;21.40;99.50;;;;;;4182555;28;20219;-79
2022/06/02 08:53:19;;;;;;;6.03;2.25;;;21.40;99.50;;;;;;4185790;28;20246;-76
2022/06/02 08:56:07;;;;;;;4.82;1.90;;;21.40;99.60;;;;;;4200844;28;20221;-82
2022/06/02 08:58:39;;;;;;;7.45;1.55;;;21.50;99.60;;;;;;4217819;28;20217;-78
2022/06/02 09:00:58;;;;;;;3.60;2.00;;;21.50;99.70;;;;;;4214152;28;20239;-76
2022/06/02 09:03:44;;;;;;;3.35;1.65;;;21.50;99.90;;;;;;4214856;28;20214;-80
2022/06/02 09:06:23;;;;;;;3.50;1.70;;;21.50;99.90;;;;;;4202654;28;20275;-77
2022/06/02 09:08:58;;;;;;;4.40;1.80;;;21.50;99.90;;;;;;4166236;28;20607;-79
2022/06/02 09:11:33;;;;;;;4.97;1.60;;;21.60;99.90;;;;;;4220013;28;20685;-77
2022/06/02 09:14:14;;;;;;;5.65;2.35;;;21.60;99.90;;;;;;4216477;28;20274;-79
2022/06/02 09:16:22;;;;;;;8.77;1.95;;;21.60;99.90;;;;;;4215947;28;20207;-80
2022/06/02 09:19:11;;;;;;;7.57;2.47;;;21.60;99.90;;;;;;4211318;28;20225;-79
2022/06/02 09:21:15;;;;;;;18.60;3.13;;;21.60;99.90;;;;;;4211439;28;20218;-80
2022/06/02 09:23:46;;;;;;;9.65;2.42;;;21.60;99.90;;;;;;4215934;28;20214;-77
2022/06/02 09:25:58;;;;;;;9.13;2.83;;;21.60;99.90;;;;;;4214177;28;20221;-78
2022/06/02 09:28:36;;;;;;;8.27;2.60;;;21.60;99.90;;;;;;4218446;28;20270;-77
2022/06/02 09:30:49;;;;;;;9.20;2.55;;;21.60;99.90;;;;;;4220717;28;20814;-80
2022/06/02 09:35:44;;;;;;;9.40;2.60;;;21.70;99.90;;;;;;4223011;28;20673;-77
2022/06/02 09:38:19;;;;;;;7.00;2.33;;;21.70;99.90;;;;;;4220699;28;20263;-78
2022/06/02 09:40:43;;;;;;;12.48;2.55;;;21.60;99.90;;;;;;4221273;28;20217;-78
2022/06/02 09:43:06;;;;;;;9.35;2.08;;;21.70;99.90;;;;;;4221405;28;20254;-83
2022/06/02 09:45:28;;;;;;;8.93;3.13;;;21.70;99.90;;;;;;4221479;28;20725;-78
2022/06/02 09:47:59;;;;;;;8.70;2.78;;;21.70;99.90;;;;;;4221747;28;20213;-82
2022/06/02 09:50:35;;;;;;;6.13;2.78;;;21.70;99.90;;;;;;4223829;28;20209;-82
2022/06/02 09:53:02;;;;;;;12.00;3.30;;;21.70;99.90;;;;;;4221112;28;20221;-79
2022/06/02 09:55:28;;;;;;;12.20;3.15;;;21.70;99.90;;;;;;4220167;28;20214;-80
2022/06/02 09:58:06;;;;;;;13.57;3.25;;;21.70;99.90;;;;;;4226428;28;20217;-82
2022/06/02 10:00:18;;;;;;;6.38;3.13;;;21.80;99.90;;;;;;4225991;28;20466;-78
2022/06/02 10:02:32;;;;;;;5.28;3.30;;;21.70;99.90;;;;;;4225792;27;20732;-80
2022/06/02 10:04:56;;;;;;;9.98;3.22;;;21.70;99.90;;;;;;4223323;27;20214;-78
2022/06/02 10:07:11;;;;;;;6.13;3.10;;;21.70;99.90;;;;;;4237817;27;20240;-79
2022/06/02 10:09:24;;;;;;;9.65;3.42;;;21.70;99.90;;;;;;4242774;27;20213;-77
2022/06/02 10:11:36;;;;;;;10.35;3.25;;;21.80;99.90;;;;;;4240497;27;20266;-78
2022/06/02 10:14:06;;;;;;;7.20;3.38;;;21.80;99.90;;;;;;4241115;27;20289;-77
2022/06/02 10:16:44;;;;;;;7.40;2.85;;;21.80;99.90;;;;;;4235123;27;20217;-78
2022/06/02 10:19:12;;;;;;;18.52;3.30;;;21.80;99.90;;;;;;4244080;27;20266;-82
2022/06/02 10:21:34;;;;;;;9.38;3.10;;;21.80;99.90;;;;;;4243960;27;20615;-85
2022/06/02 10:24:14;;;;;;;7.43;3.45;;;21.80;99.90;;;;;;4235374;27;20255;-83
2022/06/02 10:26:35;;;;;;;10.60;3.78;;;21.80;99.90;;;;;;4243140;27;20319;-79
2022/06/02 10:29:17;;;;;;;6.43;3.55;;;21.90;99.90;;;;;;4241533;27;20216;-82
2022/06/02 10:31:49;;;;;;;5.97;3.10;;;21.90;99.90;;;;;;4220398;27;20289;-81
2022/06/02 10:34:30;;;;;;;8.95;3.53;;;21.90;99.90;;;;;;4241041;27;20254;-77
2022/06/02 10:37:12;;;;;;;8.15;3.40;;;21.90;99.90;;;;;;4236863;27;20305;-80
2022/06/02 10:39:37;;;;;;;8.73;3.30;;;21.90;99.90;;;;;;4241495;27;20216;-78
2022/06/02 10:42:19;;;;;;;11.00;3.58;;;21.90;99.90;;;;;;4241529;27;20282;-81
2022/06/02 10:44:46;;;;;;;8.52;3.65;;;21.90;99.90;;;;;;4241880;27;20205;-83
2022/06/02 10:47:23;;;;;;;10.80;3.17;;;21.90;99.90;;;;;;4235513;27;20197;-79
2022/06/02 10:49:27;;;;;;;12.98;3.50;;;21.90;99.90;;;;;;4242633;27;20245;-81
2022/06/02 10:52:03;;;;;;;11.07;3.65;;;21.90;99.90;;;;;;4244314;27;20951;-81
2022/06/02 10:54:50;;;;;;;8.00;3.60;;;22.00;99.90;;;;;;4239964;27;20274;-80
2022/06/02 10:57:25;;;;;;;7.85;3.45;;;22.00;99.90;;;;;;4238344;27;21283;-81
2022/06/02 11:00:11;;;;;;;6.55;3.50;;;22.00;99.90;;;;;;4227089;27;21424;-80
2022/06/02 11:03:01;;;;;;;7.72;3.17;;;22.00;99.90;;;;;;4239355;27;20336;-83
2022/06/02 11:05:40;;;;;;;8.77;3.53;;;22.00;99.90;;;;;;4242880;27;20248;-81
2022/06/02 11:08:26;;;;;;;8.25;3.53;;;22.00;99.90;;;;;;4235431;27;20226;-79
2022/06/02 11:10:35;;;;;;;6.47;3.50;;;22.00;99.90;;;;;;4203278;27;20278;-78
2022/06/02 11:13:20;;;;;;;7.32;3.33;;;22.00;99.90;;;;;;4239605;27;20217;-80
2022/06/02 11:15:48;;;;;;;8.43;3.60;;;22.00;99.90;;;;;;4240377;27;20285;-77
2022/06/02 11:18:19;;;;;;;8.07;3.85;;;22.00;99.90;;;;;;4244173;27;20217;-80
2022/06/02 11:20:55;;;;;;;6.95;3.63;;;22.10;99.90;;;;;;4243210;27;20266;-79
2022/06/02 11:23:55;;;;;;;23.65;5.07;;;22.00;99.90;;;;;;4237728;27;20351;-81
2022/06/02 11:30:04;;;;;;;10.32;3.10;;;21.60;98.50;;;;;;4133673;28;20356;-79
2022/06/02 11:32:33;;;;;;;8.68;3.10;;;21.30;97.60;;;;;;4174384;28;20207;-80
2022/06/02 11:34:54;;;;;;;6.72;3.55;;;21.30;97.90;;;;;;4172754;28;20235;-80
2022/06/02 11:37:33;;;;;;;7.70;2.92;;;21.30;97.50;;;;;;4231834;27;20222;-75
2022/06/02 11:40:24;;;;;;;7.80;3.22;;;21.20;97.60;;;;;;4228325;27;20209;-75
2022/06/02 11:42:51;;;;;;;4.57;3.22;;;21.30;97.60;;;;;;4239960;27;20258;-75
2022/06/02 11:45:12;;;;;;;3.72;2.88;;;21.20;97.30;;;;;;4239665;27;20210;-75
2022/06/02 11:47:38;;;;;;;7.22;3.20;;;21.20;97.10;;;;;;4240259;27;20242;-75
2022/06/02 11:50:14;;;;;;;5.00;3.17;;;21.10;97.00;;;;;;4241974;27;20292;-75
2022/06/02 11:52:57;;;;;;;4.35;2.65;;;21.00;96.60;;;;;;4240737;27;20618;-75
2022/06/02 11:55:22;;;;;;;5.35;2.58;;;21.00;96.50;;;;;;4240582;27;20233;-75
2022/06/02 11:58:07;;;;;;;3.70;2.50;;;20.90;96.50;;;;;;4240230;27;20220;-75
2022/06/02 12:00:54;;;;;;;6.35;2.75;;;21.00;96.20;;;;;;4233831;27;20209;-76
2022/06/02 12:03:26;;;;;;;4.32;2.53;;;21.00;96.30;;;;;;4239846;27;20209;-75
2022/06/02 12:06:00;;;;;;;5.68;2.45;;;21.10;96.30;;;;;;4228953;27;20221;-75
2022/06/02 12:08:44;;;;;;;8.10;2.60;;;21.10;96.20;;;;;;4221565;27;20213;-74
2022/06/02 12:11:18;;;;;;;4.88;3.03;;;21.30;96.20;;;;;;4234706;27;20253;-76
2022/06/02 12:13:49;;;;;;;5.78;2.97;;;21.30;95.90;;;;;;4216158;27;20287;-74
2022/06/02 12:16:40;;;;;;;5.72;3.17;;;21.30;95.80;;;;;;4225157;27;20225;-74
2022/06/02 12:18:58;;;;;;;4.18;2.63;;;21.40;96.20;;;;;;4233318;27;20209;-74